createdAt,value
2019-02-07T00:01:07.770Z,3.34
2019-02-07T00:03:37.609Z,3.21
2019-02-07T00:06:07.444Z,3.10
2019-02-07T00:08:37.834Z,3.00
2019-02-07T00:11:07.505Z,2.92
2019-02-07T00:13:37.366Z,2.83
2019-02-07T00:16:07.015Z,2.74
2019-02-07T00:18:36.746Z,2.68
2019-02-07T00:21:06.804Z,2.64
2019-02-07T00:23:36.545Z,2.59
2019-02-07T00:26:06.257Z,2.54
2019-02-07T00:28:35.977Z,2.48
2019-02-07T00:31:05.811Z,2.42
2019-02-07T00:33:35.983Z,2.37
2019-02-07T00:36:05.898Z,2.33
2019-02-07T00:38:35.517Z,2.26
2019-02-07T00:41:05.451Z,2.22
2019-02-07T00:43:35.168Z,2.19
2019-02-07T00:46:05.584Z,2.14
2019-02-07T00:48:35.206Z,2.12
2019-02-07T00:51:05.125Z,2.10
2019-02-07T00:53:34.766Z,2.06
2019-02-07T00:56:04.511Z,2.04
2019-02-07T00:58:34.287Z,2.02
2019-02-07T01:01:03.976Z,2.01
2019-02-07T01:03:33.741Z,1.99
2019-02-07T01:06:03.390Z,1.94
2019-02-07T01:08:33.108Z,1.89
2019-02-07T01:11:03.157Z,1.85
2019-02-07T01:13:32.812Z,1.81
2019-02-07T01:16:02.982Z,1.76
2019-02-07T01:18:32.594Z,1.76
2019-02-07T01:21:02.304Z,1.73
2019-02-07T01:23:32.063Z,1.71
2019-02-07T01:26:02.149Z,1.69
2019-02-07T01:28:31.898Z,1.63
2019-02-07T01:31:01.916Z,1.59
2019-02-07T01:33:31.568Z,1.55
2019-02-07T01:36:01.093Z,1.54
2019-02-07T01:38:30.788Z,1.49
2019-02-07T01:41:00.475Z,1.47
2019-02-07T01:43:30.405Z,1.45
2019-02-07T01:46:00.118Z,1.44
2019-02-07T01:48:29.878Z,1.41
2019-02-07T01:50:59.630Z,1.40
2019-02-07T01:53:29.201Z,1.40
2019-02-07T01:55:59.143Z,1.37
2019-02-07T01:58:28.862Z,1.33
2019-02-07T02:00:58.441Z,1.31
2019-02-07T02:03:28.179Z,1.28
2019-02-07T02:05:57.819Z,1.28
2019-02-07T02:08:27.549Z,1.27
2019-02-07T02:10:57.304Z,1.29
2019-02-07T02:13:26.952Z,1.29
2019-02-07T02:15:56.587Z,1.30
2019-02-07T02:18:26.205Z,1.29
2019-02-07T02:20:56.108Z,1.26
2019-02-07T02:23:25.809Z,1.24
2019-02-07T02:25:55.623Z,1.20
2019-02-07T02:28:25.739Z,1.18
2019-02-07T02:30:55.468Z,1.21
2019-02-07T02:33:25.240Z,1.22
2019-02-07T02:35:54.791Z,1.22
2019-02-07T02:38:24.619Z,1.21
2019-02-07T02:40:54.558Z,1.20
2019-02-07T02:43:24.574Z,1.21
2019-02-07T02:45:54.361Z,1.19
2019-02-07T02:48:24.387Z,1.20
2019-02-07T02:50:53.904Z,1.19
2019-02-07T02:53:23.541Z,1.19
2019-02-07T02:55:53.354Z,1.18
2019-02-07T02:58:23.206Z,1.18
2019-02-07T03:00:57.426Z,1.14
2019-02-07T03:03:34.793Z,1.08
2019-02-07T03:06:24.420Z,1.01
2019-02-07T03:09:11.877Z,0.95
2019-02-07T03:11:59.476Z,0.89
2019-02-07T03:14:33.349Z,0.83
2019-02-07T03:17:07.137Z,0.75
2019-02-07T03:19:41.190Z,0.70
2019-02-07T03:22:14.871Z,0.70
2019-02-07T03:24:56.471Z,0.69
2019-02-07T03:27:27.629Z,0.70
2019-02-07T03:33:04.917Z,0.67
2019-02-07T03:35:51.981Z,0.67
2019-02-07T03:38:23.172Z,0.66
2019-02-07T03:40:54.544Z,0.64
2019-02-07T03:43:32.362Z,0.62
2019-02-07T03:46:06.186Z,0.57
2019-02-07T03:48:46.177Z,0.53
2019-02-07T03:51:20.313Z,0.47
2019-02-07T03:53:56.953Z,0.41
2019-02-07T03:56:31.739Z,0.37
2019-02-07T03:59:01.026Z,0.30
2019-02-07T04:01:32.581Z,0.24
2019-02-07T04:04:13.876Z,0.18
2019-02-07T04:06:47.830Z,0.15
2019-02-07T04:09:18.984Z,0.10
2019-02-07T04:11:56.267Z,0.04
2019-02-07T04:14:42.791Z,0.00
2019-02-07T04:17:30.097Z,-0.02
2019-02-07T04:20:15.983Z,-0.08
2019-02-07T04:23:02.373Z,-0.14
2019-02-07T04:25:45.877Z,-0.19
2019-02-07T04:28:25.645Z,-0.23
2019-02-07T04:30:59.759Z,-0.27
2019-02-07T04:33:30.950Z,-0.29
2019-02-07T04:36:02.110Z,-0.30
2019-02-07T04:38:36.214Z,-0.31
2019-02-07T04:41:19.244Z,-0.34
2019-02-07T04:43:53.381Z,-0.36
2019-02-07T04:46:27.576Z,-0.36
2019-02-07T04:48:58.804Z,-0.40
2019-02-07T04:51:32.675Z,-0.40
2019-02-07T04:54:09.535Z,-0.42
2019-02-07T04:56:40.721Z,-0.40
2019-02-07T04:59:11.878Z,-0.41
2019-02-07T05:01:45.661Z,-0.39
2019-02-07T05:04:34.649Z,-0.36
2019-02-07T05:07:08.719Z,-0.37
2019-02-07T05:09:45.310Z,-0.32
2019-02-07T05:12:22.225Z,-0.31
2019-02-07T05:15:08.783Z,-0.29
2019-02-07T05:17:42.994Z,-0.27
2019-02-07T05:20:30.413Z,-0.23
2019-02-07T05:23:07.694Z,-0.21
2019-02-07T05:25:53.609Z,-0.18
2019-02-07T05:28:40.883Z,-0.15
2019-02-07T05:31:12.060Z,-0.13
2019-02-07T05:33:47.738Z,-0.12
2019-02-07T05:36:18.969Z,-0.09
2019-02-07T05:38:50.134Z,-0.07
2019-02-07T05:41:19.823Z,-0.06
2019-02-07T05:43:56.819Z,-0.08
2019-02-07T05:46:29.191Z,-0.07
2019-02-07T05:49:18.668Z,-0.08
2019-02-07T05:51:49.844Z,-0.11
2019-02-07T05:54:32.936Z,-0.18
2019-02-07T05:57:02.371Z,-0.20
2019-02-07T05:59:33.518Z,-0.23
2019-02-07T06:02:20.516Z,-0.25
2019-02-07T06:04:57.339Z,-0.28
2019-02-07T06:07:45.266Z,-0.32
2019-02-07T06:10:22.376Z,-0.33
2019-02-07T06:13:05.329Z,-0.38
2019-02-07T06:15:39.199Z,-0.40
2019-02-07T06:18:09.198Z,-0.41
2019-02-07T06:20:45.872Z,-0.40
2019-02-07T06:23:17.037Z,-0.33
2019-02-07T06:26:04.308Z,-0.27
2019-02-07T06:28:41.712Z,-0.20
2019-02-07T06:31:21.904Z,-0.12
2019-02-07T06:33:53.079Z,-0.04
2019-02-07T06:36:28.072Z,0.01
2019-02-07T06:38:57.350Z,0.08
2019-02-07T06:41:28.500Z,0.13
2019-02-07T06:44:22.415Z,0.17
2019-02-07T06:47:13.573Z,0.21
2019-02-07T06:49:50.817Z,0.23
2019-02-07T06:52:29.105Z,0.28
2019-02-07T06:55:02.902Z,0.31
2019-02-07T06:57:42.803Z,0.38
2019-02-07T07:00:20.798Z,0.46
2019-02-07T07:03:03.892Z,0.54
2019-02-07T07:05:38.022Z,0.60
2019-02-07T07:08:15.068Z,0.67
2019-02-07T07:10:51.933Z,0.71
2019-02-07T07:13:32.059Z,0.75
2019-02-07T07:16:09.247Z,0.79
2019-02-07T07:18:56.429Z,0.80
2019-02-07T07:21:33.471Z,0.85
2019-02-07T07:24:18.010Z,0.90
2019-02-07T07:26:58.125Z,0.95
2019-02-07T07:29:31.998Z,1.02
2019-02-07T07:32:08.620Z,1.09
2019-02-07T07:34:55.827Z,1.17
2019-02-07T07:37:39.082Z,1.24
2019-02-07T07:40:30.227Z,1.28
2019-02-07T07:43:00.211Z,1.36
2019-02-07T07:45:43.141Z,1.45
2019-02-07T07:48:18.665Z,1.53
2019-02-07T07:51:01.758Z,1.62
2019-02-07T07:53:32.935Z,1.69
2019-02-07T07:56:04.943Z,1.72
2019-02-07T07:58:36.113Z,1.77
2019-02-07T08:01:24.735Z,1.84
2019-02-07T08:04:11.692Z,1.91
2019-02-07T08:06:42.956Z,1.99
2019-02-07T08:09:20.116Z,2.06
2019-02-07T08:11:54.281Z,2.15
2019-02-07T08:14:31.420Z,2.18
2019-02-07T08:17:08.774Z,2.23
2019-02-07T08:19:47.389Z,2.25
2019-02-07T08:22:18.556Z,2.30
2019-02-07T08:24:49.786Z,2.32
2019-02-07T08:27:20.940Z,2.32
2019-02-07T08:29:55.203Z,2.33
2019-02-07T08:32:38.251Z,2.31
2019-02-07T08:35:26.114Z,2.30
2019-02-07T08:38:15.301Z,2.29
2019-02-07T08:41:02.296Z,2.27
2019-02-07T08:43:33.455Z,2.27
2019-02-07T08:46:20.363Z,2.23
2019-02-07T08:49:01.087Z,2.21
2019-02-07T08:51:48.389Z,2.21
2019-02-07T08:57:00.885Z,2.21
2019-02-07T08:59:32.040Z,2.26
2019-02-07T09:02:05.968Z,2.32
2019-02-07T09:04:52.495Z,2.42
2019-02-07T09:07:32.294Z,2.53
2019-02-07T09:10:03.487Z,2.61
2019-02-07T09:12:50.745Z,2.63
2019-02-07T09:15:28.048Z,2.65
2019-02-07T09:18:15.465Z,2.66
2019-02-07T09:21:02.818Z,2.72
2019-02-07T09:23:32.125Z,2.78
2019-02-07T09:26:11.918Z,2.77
2019-02-07T09:28:46.085Z,2.76
2019-02-07T09:31:17.254Z,2.78
2019-02-07T09:34:04.829Z,2.81
2019-02-07T09:36:38.770Z,2.88
2019-02-07T09:39:11.248Z,2.98
2019-02-07T09:41:57.741Z,3.12
2019-02-07T09:44:45.234Z,3.27
2019-02-07T09:47:23.520Z,3.42
2019-02-07T09:50:00.459Z,3.59
2019-02-07T09:52:31.615Z,3.78
2019-02-07T09:55:08.543Z,3.94
2019-02-07T09:57:48.395Z,4.04
2019-02-07T10:00:20.289Z,4.03
2019-02-07T10:03:06.438Z,4.01
2019-02-07T10:05:49.982Z,4.04
2019-02-07T10:08:25.021Z,4.38
2019-02-07T10:10:56.233Z,4.77
2019-02-07T10:13:36.607Z,4.95
2019-02-07T10:16:13.740Z,4.99
2019-02-07T10:18:44.909Z,4.95
2019-02-07T10:21:21.964Z,5.06
2019-02-07T10:23:56.471Z,5.34
2019-02-07T10:26:31.542Z,5.77
2019-02-07T10:29:07.290Z,6.25
2019-02-07T10:31:48.198Z,7.00
2019-02-07T10:34:30.938Z,7.60
2019-02-07T10:37:02.084Z,8.14
2019-02-07T10:39:34.090Z,8.38
2019-02-07T10:42:14.528Z,8.64
2019-02-07T10:44:43.817Z,8.71
2019-02-07T10:47:17.715Z,8.51
2019-02-07T10:49:58.982Z,8.03
2019-02-07T10:52:27.605Z,7.75
2019-02-07T10:54:58.769Z,7.61
2019-02-07T10:57:41.488Z,7.35
2019-02-07T11:00:35.753Z,7.32
2019-02-07T11:03:16.353Z,7.30
2019-02-07T11:06:03.756Z,7.16
2019-02-07T11:08:37.651Z,7.05
2019-02-07T11:11:21.072Z,7.03
2019-02-07T11:13:55.020Z,7.23
2019-02-07T11:16:42.922Z,7.46
2019-02-07T11:19:32.530Z,7.54
2019-02-07T11:22:16.075Z,7.57
2019-02-07T11:25:03.780Z,7.54
2019-02-07T11:27:33.087Z,7.43
2019-02-07T11:30:19.031Z,7.35
2019-02-07T11:33:06.661Z,7.36
2019-02-07T11:35:40.542Z,7.33
2019-02-07T11:38:24.249Z,7.39
2019-02-07T11:40:58.223Z,7.42
2019-02-07T11:43:35.307Z,7.33
2019-02-07T11:46:21.439Z,7.31
2019-02-07T11:49:06.991Z,7.21
2019-02-07T11:51:37.460Z,7.03
2019-02-07T11:54:20.753Z,6.95
2019-02-07T11:57:08.448Z,6.88
2019-02-07T11:59:56.254Z,6.87
2019-02-07T12:02:43.717Z,6.96
2019-02-07T12:05:24.090Z,6.95
2019-02-07T12:07:55.522Z,6.91
2019-02-07T12:10:26.661Z,6.86
2019-02-07T12:13:16.313Z,6.78
2019-02-07T12:15:56.570Z,6.72
2019-02-07T12:18:39.904Z,6.72
2019-02-07T12:21:13.496Z,6.79
2019-02-07T12:23:47.495Z,6.86
2019-02-07T12:26:19.023Z,6.90
2019-02-07T12:28:50.273Z,6.92
2019-02-07T12:31:30.670Z,6.92
2019-02-07T12:33:59.974Z,6.88
2019-02-07T12:36:31.995Z,6.85
2019-02-07T12:39:10.448Z,6.82
2019-02-07T12:41:57.761Z,6.77
2019-02-07T12:44:47.269Z,6.64
2019-02-07T12:47:16.747Z,6.56
2019-02-07T12:49:56.395Z,6.56
2019-02-07T12:52:36.471Z,6.62
2019-02-07T12:55:10.936Z,6.67
2019-02-07T12:57:51.143Z,6.66
2019-02-07T13:00:37.227Z,6.65
2019-02-07T13:03:17.820Z,6.69
2019-02-07T13:05:49.377Z,6.66
2019-02-07T13:08:29.175Z,6.57
2019-02-07T13:11:12.523Z,6.52
2019-02-07T13:13:43.686Z,6.48
2019-02-07T13:16:14.914Z,6.49
2019-02-07T13:18:58.297Z,6.49
2019-02-07T13:21:35.279Z,6.47
2019-02-07T13:24:06.614Z,6.42
2019-02-07T13:26:38.683Z,6.36
2019-02-07T13:29:15.721Z,6.29
2019-02-07T13:31:55.639Z,6.29
2019-02-07T13:34:43.157Z,6.35
2019-02-07T13:37:23.254Z,6.44
2019-02-07T13:40:10.311Z,6.44
2019-02-07T13:43:00.148Z,6.32
2019-02-07T13:45:34.190Z,6.21
2019-02-07T13:48:09.334Z,6.11
2019-02-07T13:50:40.939Z,6.02
2019-02-07T13:53:19.340Z,5.99
2019-02-07T13:56:05.426Z,5.97
2019-02-07T13:58:36.577Z,5.95
2019-02-07T14:01:07.944Z,5.93
2019-02-07T14:03:49.164Z,5.91
2019-02-07T14:06:20.582Z,5.93
2019-02-07T14:08:54.493Z,5.96
2019-02-07T14:11:43.755Z,5.98
2019-02-07T14:14:26.586Z,5.97
2019-02-07T14:16:57.756Z,5.98
2019-02-07T14:19:29.771Z,5.94
2019-02-07T14:22:02.360Z,5.90
2019-02-07T14:24:33.506Z,5.89
2019-02-07T14:27:21.439Z,5.90
2019-02-07T14:30:07.389Z,5.88
2019-02-07T14:32:56.736Z,5.85
2019-02-07T14:35:33.828Z,5.71
2019-02-07T14:38:11.155Z,5.42
2019-02-07T14:40:40.470Z,5.20
2019-02-07T14:43:12.018Z,5.08
2019-02-07T14:45:43.321Z,5.03
2019-02-07T14:48:14.619Z,5.05
2019-02-07T14:50:44.517Z,5.07
2019-02-07T14:53:14.132Z,5.07
2019-02-07T14:55:43.653Z,5.10
2019-02-07T14:58:13.162Z,5.13
2019-02-07T15:00:43.193Z,5.14
2019-02-07T15:03:12.874Z,5.16
2019-02-07T15:05:42.879Z,5.17
2019-02-07T15:08:12.396Z,5.18
2019-02-07T15:10:42.109Z,5.20
2019-02-07T15:13:11.690Z,5.22
2019-02-07T15:15:41.196Z,5.21
2019-02-07T15:18:10.856Z,5.23
2019-02-07T15:20:40.846Z,5.25
2019-02-07T15:23:10.440Z,5.24
2019-02-07T15:25:39.978Z,5.23
2019-02-07T15:28:09.499Z,5.19
2019-02-07T15:30:39.009Z,5.13
2019-02-07T15:33:08.528Z,5.09
2019-02-07T15:35:44.334Z,5.10
2019-02-07T15:38:13.857Z,5.08
2019-02-07T15:40:44.226Z,5.08
2019-02-07T15:43:13.898Z,5.09
2019-02-07T15:45:43.461Z,5.09
2019-02-07T15:48:13.046Z,5.08
2019-02-07T15:50:42.654Z,5.07
2019-02-07T15:53:12.900Z,5.05
2019-02-07T15:55:42.427Z,5.01
2019-02-07T15:58:11.928Z,4.98
2019-02-07T16:00:48.607Z,4.95
2019-02-07T16:03:35.233Z,4.92
2019-02-07T16:06:06.473Z,4.88
2019-02-07T16:08:36.116Z,4.83
2019-02-07T16:11:06.849Z,4.81
2019-02-07T16:13:36.643Z,4.77
2019-02-07T16:16:06.314Z,4.75
2019-02-07T16:18:35.841Z,4.72
2019-02-07T16:21:05.856Z,4.71
2019-02-07T16:23:35.585Z,4.68
2019-02-07T16:26:05.498Z,4.65
2019-02-07T16:28:35.012Z,4.65
2019-02-07T16:31:05.687Z,4.61
2019-02-07T16:33:35.198Z,4.56
2019-02-07T16:36:05.750Z,4.50
2019-02-07T16:38:35.263Z,4.43
2019-02-07T16:41:05.025Z,4.36
2019-02-07T16:43:34.691Z,4.30
2019-02-07T16:46:04.815Z,4.24
2019-02-07T16:48:34.341Z,4.21
2019-02-07T16:51:04.241Z,4.18
2019-02-07T16:53:33.754Z,4.09
2019-02-07T16:56:03.645Z,3.98
2019-02-07T16:58:33.437Z,3.92
2019-02-07T17:01:03.205Z,3.89
2019-02-07T17:03:32.718Z,3.83
2019-02-07T17:06:02.482Z,3.77
2019-02-07T17:08:32.061Z,3.75
2019-02-07T17:11:02.037Z,3.77
2019-02-07T17:13:31.724Z,3.80
2019-02-07T17:16:01.518Z,3.85
2019-02-07T17:18:31.015Z,3.85
2019-02-07T17:21:11.200Z,3.80
2019-02-07T17:23:31.922Z,3.75
2019-02-07T17:26:01.516Z,3.70
2019-02-07T17:28:31.286Z,3.63
2019-02-07T17:31:00.812Z,3.60
2019-02-07T17:33:30.410Z,3.55
2019-02-07T17:35:59.930Z,3.49
2019-02-07T17:38:29.901Z,3.45
2019-02-07T17:40:59.428Z,3.41
2019-02-07T17:43:28.951Z,3.38
2019-02-07T17:45:58.462Z,3.34
2019-02-07T17:48:27.979Z,3.36
2019-02-07T17:50:57.587Z,3.41
2019-02-07T17:53:27.109Z,3.46
2019-02-07T17:55:56.787Z,3.51
2019-02-07T17:58:26.290Z,3.54
2019-02-07T18:01:04.793Z,3.54
2019-02-07T18:03:34.382Z,3.52
2019-02-07T18:06:04.764Z,3.47
2019-02-07T18:08:34.626Z,3.41
2019-02-07T18:11:04.602Z,3.33
2019-02-07T18:13:34.286Z,3.28
2019-02-07T18:16:04.140Z,3.21
2019-02-07T18:18:33.671Z,3.13
2019-02-07T18:21:03.252Z,3.04
2019-02-07T18:23:33.131Z,2.96
2019-02-07T18:26:02.712Z,2.91
2019-02-07T18:28:32.246Z,2.88
2019-02-07T18:31:01.773Z,2.88
2019-02-07T18:33:31.363Z,2.92
2019-02-07T18:36:00.940Z,2.93
2019-02-07T18:38:30.643Z,2.91
2019-02-07T18:41:00.188Z,2.89
2019-02-07T18:43:29.704Z,2.84
2019-02-07T18:45:59.231Z,2.80
2019-02-07T18:48:28.746Z,2.76
2019-02-07T18:50:58.288Z,2.75
2019-02-07T18:53:28.181Z,2.73
2019-02-07T18:55:57.809Z,2.69
2019-02-07T18:58:27.327Z,2.69
2019-02-07T19:00:56.834Z,2.67
2019-02-07T19:03:26.362Z,2.66
2019-02-07T19:05:55.881Z,2.66
2019-02-07T19:08:25.691Z,2.67
2019-02-07T19:10:55.334Z,2.68
2019-02-07T19:13:24.866Z,2.68
2019-02-07T19:15:58.682Z,2.69
2019-02-07T19:18:28.201Z,2.72
2019-02-07T19:20:57.739Z,2.73
2019-02-07T19:23:27.281Z,2.71
2019-02-07T19:25:56.802Z,2.70
2019-02-07T19:28:26.314Z,2.69
2019-02-07T19:30:55.839Z,2.69
2019-02-07T19:33:25.353Z,2.68
2019-02-07T19:35:54.906Z,2.65
2019-02-07T19:38:24.598Z,2.64
2019-02-07T19:40:54.111Z,2.67
2019-02-07T19:43:23.635Z,2.68
2019-02-07T19:45:53.151Z,2.68
2019-02-07T19:48:22.688Z,2.67
2019-02-07T19:50:52.203Z,2.65
2019-02-07T19:53:22.008Z,2.64
2019-02-07T19:55:51.793Z,2.61
2019-02-07T19:58:21.321Z,2.61
2019-02-07T20:00:50.924Z,2.58
2019-02-07T20:03:20.559Z,2.55
2019-02-07T20:05:50.107Z,2.53
2019-02-07T20:08:20.000Z,2.53
2019-02-07T20:10:49.637Z,2.51
2019-02-07T20:13:19.152Z,2.51
2019-02-07T20:15:48.744Z,2.52
2019-02-07T20:18:18.279Z,2.51
2019-02-07T20:20:48.076Z,2.51
2019-02-07T20:23:17.875Z,2.50
2019-02-07T20:25:47.483Z,2.48
2019-02-07T20:28:17.006Z,2.47
2019-02-07T20:33:16.247Z,2.44
2019-02-07T20:35:45.765Z,2.41
2019-02-07T20:38:15.293Z,2.38
2019-02-07T20:40:45.093Z,2.36
2019-02-07T20:43:14.619Z,2.36
2019-02-07T20:45:44.143Z,2.36
2019-02-07T20:48:13.836Z,2.39
2019-02-07T20:50:43.359Z,2.39
2019-02-07T20:53:14.519Z,2.42
2019-02-07T20:55:44.120Z,2.46
2019-02-07T20:58:13.795Z,2.46
2019-02-07T21:00:43.514Z,2.48
2019-02-07T21:03:13.111Z,2.52
2019-02-07T21:05:42.649Z,2.56
2019-02-07T21:08:12.175Z,2.54
2019-02-07T21:10:41.688Z,2.53
2019-02-07T21:13:11.393Z,2.51
2019-02-07T21:15:40.960Z,2.51
2019-02-07T21:18:10.623Z,2.48
2019-02-07T21:20:40.160Z,2.46
2019-02-07T21:23:09.875Z,2.45
2019-02-07T21:25:51.292Z,2.44
2019-02-07T21:28:20.892Z,2.43
2019-02-07T21:30:50.418Z,2.43
2019-02-07T21:33:19.971Z,2.42
2019-02-07T21:35:49.578Z,2.42
2019-02-07T21:38:19.140Z,2.44
2019-02-07T21:40:48.672Z,2.47
2019-02-07T21:43:18.189Z,2.48
2019-02-07T21:45:47.949Z,2.48
2019-02-07T21:48:17.451Z,2.51
2019-02-07T21:50:46.974Z,2.51
2019-02-07T21:53:17.140Z,2.52
2019-02-07T21:55:46.653Z,2.54
2019-02-07T21:58:16.683Z,2.54
2019-02-07T22:00:47.769Z,2.53
2019-02-07T22:03:17.293Z,2.54
2019-02-07T22:05:46.987Z,2.57
2019-02-07T22:08:16.840Z,2.57
2019-02-07T22:10:46.385Z,2.59
2019-02-07T22:13:16.025Z,2.60
2019-02-07T22:15:45.501Z,2.59
2019-02-07T22:18:15.043Z,2.61
2019-02-07T22:20:44.609Z,2.61
2019-02-07T22:23:14.305Z,2.61
2019-02-07T22:25:43.805Z,2.61
2019-02-07T22:28:13.773Z,2.60
2019-02-07T22:30:43.302Z,2.61
2019-02-07T22:33:13.205Z,2.62
2019-02-07T22:35:42.749Z,2.64
2019-02-07T22:38:12.406Z,2.64
2019-02-07T22:40:41.912Z,2.64
2019-02-07T22:43:11.807Z,2.64
2019-02-07T22:45:41.287Z,2.64
2019-02-07T22:48:10.895Z,2.63
2019-02-07T22:50:40.483Z,2.64
2019-02-07T22:53:10.180Z,2.64
2019-02-07T22:55:39.739Z,2.65
2019-02-07T22:58:09.762Z,2.64
2019-02-07T23:00:44.310Z,2.65
2019-02-07T23:03:19.634Z,2.64
2019-02-07T23:05:49.320Z,2.63
2019-02-07T23:08:19.167Z,2.60
2019-02-07T23:10:49.031Z,2.58
2019-02-07T23:13:18.637Z,2.57
2019-02-07T23:15:48.306Z,2.58
2019-02-07T23:18:18.067Z,2.57
2019-02-07T23:20:47.813Z,2.56
2019-02-07T23:23:17.421Z,2.53
2019-02-07T23:25:46.948Z,2.51
2019-02-07T23:28:16.632Z,2.51
2019-02-07T23:30:46.497Z,2.49
2019-02-07T23:33:16.319Z,2.46
2019-02-07T23:35:45.963Z,2.45
2019-02-07T23:38:15.533Z,2.43
2019-02-07T23:40:45.339Z,2.42
2019-02-07T23:43:15.082Z,2.41
2019-02-07T23:45:44.729Z,2.41
2019-02-07T23:48:14.432Z,2.40
2019-02-07T23:50:44.190Z,2.39
2019-02-07T23:53:15.424Z,2.37
2019-02-07T23:55:45.572Z,2.36
2019-02-07T23:58:15.319Z,2.37
